Alfred, Maine
Current Conditions -  °F | °C
As of 5:15 AM on Friday 19 Dec 2014 (Local Time) from KSFM Reporting Station
Overcast Overcast  
Wind Chill: -2°   Ceiling: 6000
Heat Index: -2°   Visibility: 10mi
Dew Point: -5°   Wind: 3mph
Humidity: 80%   Direction: 260°W
Pressure: 29.84"   Gusts: NA
Location:  43.48°N, 70.72°W
Report Text: KSFM 191015Z AUTO 26003KT 10SM OVC060 M02/M05 A2984 RMK AO1
Loading
Personal Weather Stations






























Interactive Weather Map New forecast layout! Learn more

10-Day Weather Forecast

Advertisements
Track Severe Weather on mobile